Time;durP1;ratioP1;P1;durP2;ratioP2;P2;SDS_P1;SDS_P2;PMS_P1;PMS_P2;Temp;Humidity;BMP_temperature;BMP_pressure;BME280_temperature;BME280_humidity;BME280_pressure;Samples;Min_cycle;Max_cycle;Signal;HPM_P1;HPM_P2
2023/06/02 00:09:42;;;;;;;8.10;5.00;;;;;;;20.09;44.77;99132.25;7443725;39;20276;31
2023/06/02 00:20:20;;;;;;;6.43;5.40;;;;;;;19.53;48.56;99140.63;7460012;39;20475;31
2023/06/02 00:25:55;;;;;;;7.00;5.28;;;;;;;19.32;48.01;99141.03;7421939;39;20239;31
2023/06/02 00:31:17;;;;;;;9.70;5.87;;;;;;;19.13;49.08;99147.53;7380157;39;20342;31
2023/06/02 00:36:52;;;;;;;10.87;5.80;;;;;;;18.94;50.58;99143.88;7350106;39;20354;31
2023/06/02 00:42:27;;;;;;;9.10;6.90;;;;;;;18.82;50.08;99151.12;7370598;39;20269;31
2023/06/02 00:48:02;;;;;;;9.05;6.30;;;;;;;18.70;51.13;99145.50;7388157;39;20217;31
2023/06/02 00:53:38;;;;;;;9.80;6.70;;;;;;;18.43;51.35;99152.97;7423432;39;20254;31
2023/06/02 00:59:13;;;;;;;10.00;6.90;;;;;;;18.35;51.71;99152.41;7422841;39;20337;31
2023/06/02 01:04:50;;;;;;;11.15;6.45;;;;;;;18.23;52.62;99156.88;7423425;39;20238;31
2023/06/02 01:10:23;;;;;;;10.17;6.50;;;;;;;17.97;53.04;99147.75;7422410;39;21468;31
2023/06/02 01:21:00;;;;;;;10.85;6.55;;;;;;;17.66;54.15;99160.41;7441122;39;20246;31
2023/06/02 01:26:36;;;;;;;7.87;6.30;;;;;;;17.49;55.16;99155.37;7452251;39;20328;31
2023/06/02 01:32:11;;;;;;;6.90;6.20;;;;;;;17.35;54.62;99156.44;7486593;39;20249;31
2023/06/02 01:37:46;;;;;;;7.10;6.00;;;;;;;17.32;54.12;99154.16;7444413;39;20331;31
2023/06/02 01:43:23;;;;;;;7.93;6.40;;;;;;;17.27;54.59;99153.09;7400612;39;20274;31
2023/06/02 01:54:04;;;;;;;8.10;6.20;;;;;;;17.03;54.61;99151.84;7353065;39;20233;31
2023/06/02 01:59:38;;;;;;;7.20;5.97;;;;;;;16.82;56.22;99147.44;7341703;39;20262;31
2023/06/02 02:10:17;;;;;;;10.13;6.03;;;;;;;16.74;55.13;99149.50;7383383;39;20261;31
2023/06/02 02:15:53;;;;;;;8.65;5.70;;;;;;;16.55;56.33;99148.37;7380295;39;20235;31
2023/06/02 02:21:29;;;;;;;7.50;5.47;;;;;;;16.59;56.10;99152.41;7387371;39;20589;31
2023/06/02 02:27:03;;;;;;;6.70;5.40;;;;;;;16.56;55.46;99160.97;7380212;39;20240;31
2023/06/02 02:32:39;;;;;;;6.40;5.20;;;;;;;16.48;56.97;99156.56;7398846;39;20259;31
2023/06/02 02:38:00;;;;;;;7.97;5.87;;;;;;;16.41;56.74;99165.75;7404225;39;20449;31
2023/06/02 02:43:21;;;;;;;7.20;5.27;;;;;;;16.23;56.39;99169.84;7400437;39;20449;31
2023/06/02 02:48:56;;;;;;;6.60;5.10;;;;;;;16.04;57.37;99167.91;7442542;39;20325;31
2023/06/02 02:54:31;;;;;;;8.05;5.60;;;;;;;15.94;58.20;99169.31;7390771;39;21445;31
2023/06/02 03:00:07;;;;;;;5.93;5.37;;;;;;;15.88;57.47;99170.97;7402432;39;20367;31
2023/06/02 03:05:42;;;;;;;7.23;5.77;;;;;;;15.84;58.54;99171.56;7381195;39;20258;31
2023/06/02 03:11:02;;;;;;;10.50;5.27;;;;;;;15.80;57.90;99179.25;7383598;39;20260;31
2023/06/02 03:16:34;;;;;;;6.73;5.23;;;;;;;15.76;57.56;99180.72;7376567;39;20302;31
2023/06/02 03:22:08;;;;;;;6.75;5.70;;;;;;;15.59;58.77;99188.34;7381378;39;20322;31
2023/06/02 03:27:28;;;;;;;7.13;5.30;;;;;;;15.55;58.39;99184.34;7386781;39;20267;31
2023/06/02 03:32:49;;;;;;;7.15;5.20;;;;;;;15.41;59.01;99185.25;7400967;39;20269;31
2023/06/02 03:38:23;;;;;;;6.90;5.35;;;;;;;15.25;60.04;99197.25;7360564;39;20481;31
2023/06/02 03:43:43;;;;;;;7.70;5.75;;;;;;;15.26;59.24;99192.69;7293585;39;20345;31
2023/06/02 03:49:04;;;;;;;6.45;5.20;;;;;;;15.19;59.70;99197.19;7300352;39;20360;31
2023/06/02 03:54:40;;;;;;;7.50;6.20;;;;;;;15.10;60.20;99198.38;7094059;40;21186;31
2023/06/02 04:00:00;;;;;;;7.67;5.80;;;;;;;15.09;59.56;99202.13;7339482;39;20299;31
2023/06/02 04:05:36;;;;;;;8.40;6.10;;;;;;;15.09;59.37;99194.84;7407069;39;20249;31
2023/06/02 04:11:12;;;;;;;7.70;5.70;;;;;;;14.94;60.43;99188.62;7428816;39;20258;31
2023/06/02 04:16:47;;;;;;;6.33;5.50;;;;;;;14.97;60.12;99200.97;7476167;39;20344;31
2023/06/02 04:22:07;;;;;;;7.63;5.80;;;;;;;15.08;59.49;99208.59;7447231;39;20230;31
2023/06/02 04:27:43;;;;;;;8.25;5.30;;;;;;;15.05;60.09;99214.44;7423601;39;20254;31
2023/06/02 04:33:19;;;;;;;6.00;5.40;;;;;;;14.99;60.78;99223.34;7405142;39;20232;31
2023/06/02 04:38:54;;;;;;;9.60;5.80;;;;;;;14.89;60.70;99213.63;7442286;39;20337;31
2023/06/02 04:44:30;;;;;;;8.20;5.50;;;;;;;14.88;59.96;99211.09;7428625;39;20239;31
2023/06/02 04:50:05;;;;;;;8.30;5.73;;;;;;;14.95;60.17;99209.31;7414442;39;20274;31
2023/06/02 04:55:25;;;;;;;8.15;5.85;;;;;;;14.91;60.62;99224.31;7442638;39;20249;31
2023/06/02 05:01:02;;;;;;;8.50;5.73;;;;;;;14.90;60.15;99228.06;7422516;39;20361;31
2023/06/02 05:06:22;;;;;;;8.47;5.43;;;;;;;14.98;60.28;99227.06;7425992;39;20250;31
2023/06/02 05:11:55;;;;;;;9.30;5.40;;;;;;;15.06;59.50;99230.50;7400766;39;20243;31
2023/06/02 05:17:32;;;;;;;8.93;5.70;;;;;;;15.07;60.63;99226.75;7398104;39;20435;31
2023/06/02 05:28:11;;;;;;;8.60;5.53;;;;;;;15.27;59.23;99233.19;7384745;39;20503;31
2023/06/02 05:33:47;;;;;;;7.65;5.85;;;;;;;15.26;59.98;99236.97;7413022;39;20311;31
2023/06/02 05:39:22;;;;;;;9.40;6.20;;;;;;;15.37;58.93;99243.72;7462053;38;20421;31
2023/06/02 05:44:57;;;;;;;9.65;6.10;;;;;;;15.29;59.76;99241.16;7420906;39;20244;31
2023/06/02 05:50:31;;;;;;;8.40;6.00;;;;;;;15.34;59.10;99250.41;7444815;39;20437;31
2023/06/02 05:56:06;;;;;;;8.00;5.95;;;;;;;15.54;58.74;99255.16;7405089;39;20251;31
2023/06/02 06:01:28;;;;;;;9.27;6.27;;;;;;;15.64;58.39;99270.09;7378760;39;20455;31
2023/06/02 06:07:03;;;;;;;8.43;5.33;;;;;;;15.76;58.61;99264.97;7380836;39;20250;31
2023/06/02 06:12:23;;;;;;;7.93;6.20;;;;;;;15.95;58.19;99266.97;7414064;39;20238;31
2023/06/02 06:18:03;;;;;;;9.95;5.50;;;;;;;16.08;57.85;99274.38;7398657;39;20275;31
2023/06/02 06:23:39;;;;;;;11.57;6.03;;;;;;;16.12;57.31;99259.34;7390280;39;20242;31
2023/06/02 06:29:14;;;;;;;8.70;5.80;;;;;;;16.28;56.27;99272.59;7382395;39;20252;31
2023/06/02 06:34:47;;;;;;;8.85;5.95;;;;;;;16.50;55.99;99259.72;7360500;39;20305;31
2023/06/02 06:40:22;;;;;;;10.97;5.20;;;;;;;16.48;56.52;99264.56;7365219;39;20240;31
2023/06/02 06:45:42;;;;;;;8.15;5.70;;;;;;;16.62;55.83;99269.03;7440732;39;20399;31
2023/06/02 06:51:03;;;;;;;10.90;6.20;;;;;;;16.68;54.64;99277.22;7463771;39;20269;31
2023/06/02 06:56:40;;;;;;;10.47;5.40;;;;;;;16.68;55.55;99279.09;7483440;39;20419;31
2023/06/02 07:01:59;;;;;;;9.45;5.40;;;;;;;16.83;55.81;99281.66;7489846;39;20254;31
2023/06/02 07:07:34;;;;;;;10.40;5.60;;;;;;;17.02;54.65;99270.84;7489314;39;20337;31
2023/06/02 07:13:10;;;;;;;8.57;5.60;;;;;;;17.08;55.62;99283.63;7422590;39;20467;31
2023/06/02 07:18:31;;;;;;;11.20;5.60;;;;;;;17.31;53.90;99287.84;7382287;39;20254;31
2023/06/02 07:24:06;;;;;;;9.63;5.90;;;;;;;17.32;54.24;99282.22;7397797;39;20277;31
2023/06/02 07:29:38;;;;;;;6.85;5.37;;;;;;;17.59;52.84;99277.66;7355379;39;20260;31
2023/06/02 07:35:15;;;;;;;8.67;5.83;;;;;;;17.57;53.60;99272.38;7406931;39;20254;31
2023/06/02 07:40:34;;;;;;;8.23;5.43;;;;;;;17.76;52.54;99273.44;7395566;39;20307;31
2023/06/02 07:46:07;;;;;;;11.15;5.90;;;;;;;18.00;53.00;99280.97;7402542;39;20294;31
2023/06/02 07:51:42;;;;;;;9.30;5.63;;;;;;;18.05;52.38;99279.47;7384281;39;20422;31
2023/06/02 07:57:03;;;;;;;13.70;6.00;;;;;;;18.25;51.90;99291.22;7376799;39;20243;31
2023/06/02 08:02:40;;;;;;;10.50;5.85;;;;;;;18.35;51.60;99277.94;7428389;39;20258;31
2023/06/02 08:08:01;;;;;;;10.90;5.80;;;;;;;18.46;51.26;99275.41;7393546;39;21506;31
2023/06/02 08:13:21;;;;;;;11.23;5.87;;;;;;;18.72;51.89;99276.37;7419084;39;20232;31
2023/06/02 08:18:58;;;;;;;7.20;5.35;;;;;;;18.75;51.02;99265.84;7441351;39;20240;31
2023/06/02 08:24:36;;;;;;;8.63;5.60;;;;;;;18.99;50.52;99274.34;7451926;39;20341;31
2023/06/02 08:30:08;;;;;;;7.60;5.10;;;;;;;19.08;49.17;99265.69;7468226;39;20258;31
2023/06/02 08:35:46;;;;;;;8.30;4.70;;;;;;;19.19;48.92;99253.19;7446975;39;20258;31
2023/06/02 08:41:19;;;;;;;9.03;5.53;;;;;;;19.28;49.38;99260.06;7388717;39;20253;31
2023/06/02 08:46:55;;;;;;;9.30;5.37;;;;;;;19.57;48.92;99253.16;7395435;39;20238;31
2023/06/02 08:52:28;;;;;;;11.60;5.60;;;;;;;19.79;48.17;99251.66;7367644;39;20262;31
2023/06/02 08:58:00;;;;;;;10.70;5.45;;;;;;;19.85;47.98;99258.16;7390717;39;20262;31
2023/06/02 09:08:44;;;;;;;10.30;5.00;;;;;;;19.93;47.12;99260.59;7393421;39;20278;31
2023/06/02 09:19:21;;;;;;;7.60;4.83;;;;;;;20.17;46.35;99248.78;7408782;39;20274;31
2023/06/02 09:24:57;;;;;;;8.60;5.40;;;;;;;20.34;45.90;99249.88;7381588;39;20260;31
2023/06/02 09:30:32;;;;;;;6.93;4.80;;;;;;;20.40;46.43;99243.50;7379083;39;20266;31
2023/06/02 09:36:07;;;;;;;9.10;5.40;;;;;;;20.59;45.18;99244.31;7401053;39;20357;31
2023/06/02 09:41:44;;;;;;;8.13;4.80;;;;;;;20.76;44.59;99245.34;7381014;39;20240;31
2023/06/02 09:47:20;;;;;;;7.37;4.80;;;;;;;20.92;44.77;99241.13;7324939;39;20250;31
2023/06/02 09:52:38;;;;;;;8.80;4.95;;;;;;;20.94;44.12;99249.94;7378951;39;20254;31
2023/06/02 09:58:15;;;;;;;8.90;5.10;;;;;;;21.15;43.47;99246.72;7401202;39;20269;31
2023/06/02 10:03:50;;;;;;;9.85;4.37;;;;;;;21.34;43.20;99248.34;7405205;39;20382;31
2023/06/02 10:09:27;;;;;;;10.20;5.00;;;;;;;21.44;43.35;99243.12;7368367;39;20334;31
2023/06/02 10:15:06;;;;;;;7.63;4.50;;;;;;;21.70;42.09;99247.31;7195381;39;20270;31
2023/06/02 10:20:40;;;;;;;8.65;5.12;;;;;;;21.76;41.57;99237.31;7425508;39;20314;31
2023/06/02 10:26:21;;;;;;;9.02;4.50;;;;;;;21.91;41.88;99240.41;7466796;39;20289;31
2023/06/02 10:31:57;;;;;;;6.00;4.13;;;;;;;21.97;41.36;99234.84;7468525;39;20261;31
2023/06/02 10:37:34;;;;;;;9.00;4.60;;;;;;;21.99;41.31;99238.16;7443521;39;20263;31
2023/06/02 10:43:25;;;;;;;9.00;4.12;;;;;;;22.13;40.81;99236.00;7400478;39;20345;31
2023/06/02 10:49:03;;;;;;;6.98;3.96;;;;;;;22.43;40.04;99222.09;7420150;39;20290;31
2023/06/02 10:54:23;;;;;;;11.33;4.83;;;;;;;22.67;40.47;99225.63;7410836;39;20278;31
2023/06/02 11:05:04;;;;;;;8.32;4.00;;;;;;;22.57;40.08;99217.19;7402739;39;20349;31
2023/06/02 11:10:55;;;;;;;7.70;4.37;;;;;;;22.90;39.99;99203.59;7408392;39;20249;31
2023/06/02 11:16:30;;;;;;;7.32;3.70;;;;;;;23.00;39.84;99203.75;7410945;39;20242;31
2023/06/02 11:22:16;;;;;;;6.93;3.78;;;;;;;23.18;39.13;99210.97;7438309;39;20270;31
2023/06/02 11:27:53;;;;;;;7.43;4.15;;;;;;;23.15;39.33;99211.47;7440264;39;20246;31
2023/06/02 11:33:28;;;;;;;6.80;3.92;;;;;;;23.12;39.41;99198.22;7444678;39;20255;31
2023/06/02 11:39:04;;;;;;;5.72;4.00;;;;;;;23.06;38.96;99205.53;7405941;39;20235;31
2023/06/02 11:44:25;;;;;;;6.87;3.90;;;;;;;23.30;38.51;99207.06;7442954;39;20282;31
2023/06/02 11:50:01;;;;;;;6.00;3.55;;;;;;;23.23;37.33;99195.38;7444710;39;20424;31
2023/06/02 11:55:37;;;;;;;9.70;4.35;;;;;;;23.22;38.38;99193.72;7404396;39;20250;31
2023/06/02 12:01:22;;;;;;;6.25;3.92;;;;;;;23.58;38.32;99197.09;7407192;39;20243;31
2023/06/02 12:07:01;;;;;;;6.26;3.34;;;;;;;23.70;38.08;99186.81;7448682;39;20341;31
2023/06/02 12:12:37;;;;;;;5.65;3.17;;;;;;;23.86;37.35;99188.75;7428231;39;20287;31
2023/06/02 12:18:12;;;;;;;7.22;3.30;;;;;;;23.98;36.52;99188.62;7468159;39;21264;31
2023/06/02 12:24:11;;;;;;;5.60;3.20;;;;;;;23.76;36.37;99177.56;7400128;39;20255;31
2023/06/02 12:34:52;;;;;;;5.85;3.20;;;;;;;23.97;36.03;99181.44;7421949;39;20270;31
2023/06/02 12:40:13;;;;;;;5.65;3.00;;;;;;;24.06;36.04;99189.03;7444040;39;20241;31
2023/06/02 12:45:33;;;;;;;5.30;2.60;;;;;;;23.89;35.86;99165.34;7453669;39;21327;31
2023/06/02 12:51:09;;;;;;;10.90;3.10;;;;;;;23.98;35.38;99167.44;7495045;39;21387;31
2023/06/02 12:56:29;;;;;;;8.48;3.00;;;;;;;24.11;35.36;99157.97;7476395;39;20235;31
2023/06/02 13:02:04;;;;;;;5.43;2.85;;;;;;;24.19;35.83;99165.81;7469185;39;20272;31
2023/06/02 13:07:40;;;;;;;6.05;2.70;;;;;;;24.18;34.58;99164.13;7472314;39;20242;31
2023/06/02 13:13:03;;;;;;;5.82;2.78;;;;;;;24.24;34.85;99166.72;7492981;39;20359;31
2023/06/02 13:18:35;;;;;;;9.95;3.05;;;;;;;24.52;35.70;99164.84;7475664;39;20332;31
2023/06/02 13:24:12;;;;;;;7.47;2.67;;;;;;;24.57;34.40;99151.94;7491279;39;21340;31
2023/06/02 13:29:47;;;;;;;4.80;2.90;;;;;;;24.42;34.13;99159.22;7422757;39;20250;31
2023/06/02 13:35:23;;;;;;;6.55;3.00;;;;;;;24.51;33.71;99149.41;7381595;39;20232;31
2023/06/02 13:41:00;;;;;;;5.33;2.47;;;;;;;24.57;34.43;99148.37;7382329;39;20574;31
2023/06/02 13:46:21;;;;;;;6.53;2.50;;;;;;;24.65;32.99;99140.47;7349971;39;20601;31
2023/06/02 13:51:39;;;;;;;7.30;2.58;;;;;;;24.58;33.32;99150.03;7428081;39;20305;31
2023/06/02 13:57:15;;;;;;;5.35;2.55;;;;;;;24.51;33.70;99141.97;7411725;39;20242;31
2023/06/02 14:02:35;;;;;;;6.07;2.70;;;;;;;24.53;33.30;99144.44;7445264;39;20242;31
2023/06/02 14:07:55;;;;;;;5.35;2.60;;;;;;;24.64;34.51;99144.31;7443695;39;20402;31
2023/06/02 14:13:31;;;;;;;7.60;2.40;;;;;;;24.50;33.72;99147.72;7417170;39;20458;31
2023/06/02 14:19:07;;;;;;;6.65;2.50;;;;;;;24.34;34.72;99134.88;7443684;39;20341;31
2023/06/02 14:24:29;;;;;;;6.53;2.40;;;;;;;24.61;33.16;99142.09;7423455;39;20273;31
2023/06/02 14:30:04;;;;;;;7.35;2.53;;;;;;;24.65;34.07;99134.97;7398404;39;20372;31
2023/06/02 14:35:39;;;;;;;8.18;2.47;;;;;;;24.61;34.06;99138.50;7427041;39;20265;31
2023/06/02 14:41:15;;;;;;;4.90;2.60;;;;;;;24.61;32.81;99131.06;7403075;39;20306;31
2023/06/02 14:46:53;;;;;;;11.02;2.53;;;;;;;24.65;33.76;99120.34;7415324;39;20301;31
2023/06/02 14:52:14;;;;;;;7.27;2.50;;;;;;;24.76;32.51;99111.06;7444547;39;20242;31
2023/06/02 14:57:34;;;;;;;8.68;2.28;;;;;;;24.76;32.56;99110.25;7490336;39;20233;31
2023/06/02 15:03:09;;;;;;;3.92;2.17;;;;;;;24.68;32.72;99112.38;7463163;39;20262;31
2023/06/02 15:08:44;;;;;;;6.50;2.45;;;;;;;24.66;32.67;99114.56;7440933;39;20258;31
2023/06/02 15:14:20;;;;;;;4.15;2.20;;;;;;;24.60;33.08;99107.34;7423200;39;20464;31
2023/06/02 15:25:02;;;;;;;4.90;2.17;;;;;;;24.54;31.65;99096.50;7424105;39;20274;31
2023/06/02 15:35:42;;;;;;;5.60;2.42;;;;;;;24.45;31.26;99087.03;7457120;39;20298;31
2023/06/02 15:46:23;;;;;;;6.88;2.45;;;;;;;24.40;30.61;99082.28;7451608;39;20356;31
2023/06/02 15:51:59;;;;;;;6.30;2.10;;;;;;;24.45;31.58;99079.59;7474178;39;21806;31
2023/06/02 15:57:20;;;;;;;5.13;2.37;;;;;;;24.46;31.24;99078.53;7464710;39;20250;31
2023/06/02 16:02:56;;;;;;;4.72;2.22;;;;;;;24.41;31.62;99070.19;7422408;39;20302;31
2023/06/02 16:08:32;;;;;;;8.43;2.30;;;;;;;24.34;31.15;99074.25;7421102;39;20238;31
2023/06/02 16:14:08;;;;;;;4.40;2.50;;;;;;;24.48;30.80;99070.00;7397296;39;20240;31
2023/06/02 16:19:45;;;;;;;6.15;2.12;;;;;;;24.39;30.83;99074.31;7390885;39;20270;31
2023/06/02 16:25:18;;;;;;;3.85;1.90;;;;;;;24.25;29.69;99073.88;7428447;39;20246;31
2023/06/02 16:30:38;;;;;;;3.10;2.05;;;;;;;24.24;29.84;99075.81;7443063;39;20435;31
2023/06/02 16:36:14;;;;;;;8.90;2.55;;;;;;;24.27;29.26;99068.09;7447400;39;20270;31
2023/06/02 16:41:31;;;;;;;5.98;2.62;;;;;;;24.10;30.07;99073.66;7218822;39;21400;31
2023/06/02 16:47:06;;;;;;;4.93;2.28;;;;;;;23.96;29.26;99073.22;7442850;39;20371;31
2023/06/02 16:52:43;;;;;;;7.37;2.30;;;;;;;23.69;29.80;99075.91;7400639;39;20246;31
2023/06/02 16:58:03;;;;;;;5.70;2.30;;;;;;;23.64;31.20;99083.25;7425617;39;20263;31
2023/06/02 17:03:23;;;;;;;4.57;2.50;;;;;;;23.45;30.25;99081.88;7398007;39;20238;31
2023/06/02 17:09:00;;;;;;;4.88;2.40;;;;;;;23.20;29.64;99077.63;7392196;39;20253;31
2023/06/02 17:14:19;;;;;;;4.15;2.40;;;;;;;23.08;30.78;99087.84;7403152;39;20242;31
2023/06/02 17:19:39;;;;;;;5.00;2.30;;;;;;;22.87;29.16;99091.34;7398342;39;20298;31
2023/06/02 17:30:20;;;;;;;4.95;2.40;;;;;;;22.60;30.12;99082.06;7440565;39;20266;31
2023/06/02 17:35:55;;;;;;;3.90;2.30;;;;;;;22.53;31.00;99075.88;7450819;39;20270;31
2023/06/02 17:41:30;;;;;;;4.70;2.30;;;;;;;22.43;30.57;99071.84;7462221;39;20420;31
2023/06/02 17:47:06;;;;;;;4.25;2.45;;;;;;;22.35;31.39;99079.66;7421214;39;20249;31
2023/06/02 17:52:41;;;;;;;3.83;2.50;;;;;;;22.18;32.80;99082.34;7361047;39;20240;31
2023/06/02 17:58:17;;;;;;;5.10;2.72;;;;;;;22.12;32.79;99072.34;7370152;39;20307;31
2023/06/02 18:03:54;;;;;;;4.65;2.50;;;;;;;22.15;33.53;99071.87;7391007;39;20429;31
2023/06/02 18:09:29;;;;;;;7.87;2.67;;;;;;;22.12;34.46;99072.34;7401641;39;20259;31
2023/06/02 18:15:05;;;;;;;9.07;2.50;;;;;;;22.12;33.88;99083.31;7390458;39;20258;31
2023/06/02 18:20:40;;;;;;;5.10;2.55;;;;;;;21.84;35.45;99083.28;7377669;39;20255;31
2023/06/02 18:31:04;;;;;;;3.78;2.75;;;;;;;21.76;36.07;99089.13;7419456;39;20602;31
2023/06/02 18:41:45;;;;;;;6.55;2.80;;;;;;;21.55;36.73;99101.53;7475767;39;20246;31
2023/06/02 18:52:10;;;;;;;4.85;2.70;;;;;;;21.49;37.26;99103.38;7473358;39;20464;31
2023/06/02 18:57:46;;;;;;;4.90;2.78;;;;;;;21.42;37.93;99105.38;7461644;39;20328;31
2023/06/02 19:03:07;;;;;;;5.32;2.40;;;;;;;21.43;37.47;99115.28;7467157;39;20280;31
2023/06/02 19:08:26;;;;;;;7.80;3.00;;;;;;;21.32;37.75;99110.63;7400973;39;21499;31
2023/06/02 19:19:07;;;;;;;6.20;2.55;;;;;;;21.21;37.16;99118.84;7419930;39;20266;31
2023/06/02 19:24:27;;;;;;;5.90;2.83;;;;;;;21.18;37.39;99120.16;7424384;39;20250;31
2023/06/02 19:29:48;;;;;;;7.55;2.72;;;;;;;21.00;37.01;99133.91;7507500;38;20322;31
2023/06/02 19:35:24;;;;;;;7.40;2.80;;;;;;;20.85;37.65;99133.50;7461408;39;20498;31
2023/06/02 19:40:56;;;;;;;5.16;2.64;;;;;;;20.69;37.85;99133.13;7442426;39;20357;31
2023/06/02 19:46:16;;;;;;;6.70;3.10;;;;;;;20.61;37.78;99136.19;7441995;39;20330;31
2023/06/02 19:51:52;;;;;;;6.60;2.70;;;;;;;20.48;36.81;99132.81;7397538;39;20242;31
2023/06/02 19:57:28;;;;;;;5.40;2.80;;;;;;;20.49;36.69;99143.50;7421801;39;20349;31
2023/06/02 20:03:04;;;;;;;4.18;2.70;;;;;;;20.36;36.30;99142.88;7423150;39;20270;31
2023/06/02 20:08:41;;;;;;;5.80;2.75;;;;;;;20.27;36.65;99152.44;7454687;39;20260;31
2023/06/02 20:14:00;;;;;;;5.80;3.10;;;;;;;20.22;35.85;99161.34;7441153;39;20257;31
2023/06/02 20:19:21;;;;;;;5.47;3.12;;;;;;;20.18;36.86;99176.56;7442887;39;20366;31
2023/06/02 20:24:56;;;;;;;6.20;3.23;;;;;;;20.00;36.52;99176.56;7440608;39;20265;31
2023/06/02 20:30:31;;;;;;;7.70;3.25;;;;;;;19.97;36.95;99177.84;7451456;39;20352;31
2023/06/02 20:35:52;;;;;;;6.05;2.90;;;;;;;19.91;37.84;99197.06;7464485;39;20277;31
2023/06/02 20:41:31;;;;;;;7.65;3.35;;;;;;;19.85;37.78;99197.97;7430822;39;20249;31
2023/06/02 20:47:07;;;;;;;5.95;3.40;;;;;;;19.80;38.09;99207.69;7400311;39;20254;31
2023/06/02 20:52:27;;;;;;;4.00;3.20;;;;;;;19.74;38.33;99200.41;7379965;39;20244;31
2023/06/02 20:58:02;;;;;;;5.05;3.05;;;;;;;19.61;38.86;99199.69;7383650;39;20258;31
2023/06/02 21:03:38;;;;;;;6.35;3.25;;;;;;;19.57;39.37;99195.75;7400393;39;20258;31
2023/06/02 21:08:58;;;;;;;6.95;3.20;;;;;;;19.60;40.53;99200.75;7422614;39;20354;31
2023/06/02 21:14:33;;;;;;;5.30;3.20;;;;;;;19.51;40.60;99207.56;7390463;39;20267;31
2023/06/02 21:20:08;;;;;;;7.05;3.15;;;;;;;19.54;40.33;99205.22;7366722;39;20378;31
2023/06/02 21:25:29;;;;;;;7.35;3.20;;;;;;;19.57;40.25;99212.94;7339968;39;20259;31
2023/06/02 21:31:05;;;;;;;6.10;3.30;;;;;;;19.32;41.24;99206.63;7344603;39;20350;31
2023/06/02 21:36:39;;;;;;;5.10;3.00;;;;;;;19.23;42.15;99214.25;7341096;39;20248;31
2023/06/02 21:42:15;;;;;;;6.20;3.40;;;;;;;19.14;42.01;99209.28;7326184;39;20326;31
2023/06/02 21:47:52;;;;;;;7.20;3.40;;;;;;;19.07;43.20;99205.78;7307193;39;20240;31
2023/06/02 21:53:12;;;;;;;6.20;3.20;;;;;;;19.03;43.22;99215.47;7298577;39;20755;31
2023/06/02 21:58:46;;;;;;;8.00;3.40;;;;;;;18.98;43.79;99218.03;7333795;39;20359;31
2023/06/02 22:04:23;;;;;;;5.53;3.20;;;;;;;18.91;43.42;99218.09;7383523;39;20239;31
2023/06/02 22:09:59;;;;;;;7.93;3.73;;;;;;;18.89;43.77;99225.66;7373638;39;20234;31
2023/06/02 22:15:19;;;;;;;4.74;3.30;;;;;;;18.85;44.62;99232.59;7431075;39;20275;31
2023/06/02 22:20:53;;;;;;;6.53;3.10;;;;;;;18.70;44.93;99224.69;7358410;39;20590;31
2023/06/02 22:26:13;;;;;;;8.95;3.30;;;;;;;18.78;45.58;99221.69;7305450;39;20256;31
2023/06/02 22:31:48;;;;;;;5.47;3.57;;;;;;;18.65;45.79;99229.97;7322859;39;20443;31
2023/06/02 22:37:24;;;;;;;5.03;3.40;;;;;;;18.52;45.08;99243.66;7313701;39;20271;31
2023/06/02 22:48:04;;;;;;;7.43;3.50;;;;;;;18.33;45.96;99244.56;7375241;39;20264;31
2023/06/02 22:53:41;;;;;;;6.30;3.43;;;;;;;18.35;46.63;99232.38;7427629;39;20241;31
2023/06/02 22:59:16;;;;;;;6.43;3.70;;;;;;;18.31;46.39;99236.59;7444711;39;20253;31
2023/06/02 23:04:36;;;;;;;8.53;3.50;;;;;;;18.31;46.83;99233.88;7452998;39;20226;31
2023/06/02 23:10:12;;;;;;;6.77;3.70;;;;;;;18.22;46.24;99234.31;7422692;39;20643;31
2023/06/02 23:20:51;;;;;;;8.47;3.57;;;;;;;18.16;46.76;99225.13;7417514;39;20285;31
2023/06/02 23:31:32;;;;;;;7.67;3.50;;;;;;;18.21;46.79;99214.38;7494858;39;21361;31
2023/06/02 23:36:52;;;;;;;6.12;3.30;;;;;;;18.15;46.48;99223.44;7440042;39;20309;31
2023/06/02 23:42:27;;;;;;;8.10;3.60;;;;;;;18.01;47.49;99219.06;7440960;39;20357;31
2023/06/02 23:48:03;;;;;;;8.33;3.40;;;;;;;17.91;46.91;99215.94;7464106;39;20257;31
2023/06/02 23:58:25;;;;;;;5.30;3.40;;;;;;;17.83;47.30;99208.81;7253781;39;21206;31
